Time;durP1;ratioP1;P1;durP2;ratioP2;P2;SDS_P1;SDS_P2;PMS_P1;PMS_P2;Temp;Humidity;BMP_temperature;BMP_pressure;BME280_temperature;BME280_humidity;BME280_pressure;Samples;Min_cycle;Max_cycle;Signal;HPM_P1;HPM_P2
2023/04/17 00:00:49;;;;;;;12.15;6.80;;;;;;;11.01;24.05;100551.38;5072918;28;20539;-63
2023/04/17 00:03:15;;;;;;;10.45;6.82;;;;;;;10.99;24.07;100554.00;5068883;28;20515;-64
2023/04/17 00:05:44;;;;;;;11.57;6.90;;;;;;;10.83;24.56;100544.00;5086829;28;20040;-64
2023/04/17 00:08:10;;;;;;;14.52;6.63;;;;;;;10.76;23.94;100539.81;5064294;28;20040;-62
2023/04/17 00:10:36;;;;;;;14.48;7.30;;;;;;;10.85;24.17;100556.06;5083810;28;20469;-63
2023/04/17 00:13:02;;;;;;;13.70;7.28;;;;;;;10.66;24.15;100517.47;5065639;28;20043;-64
2023/04/17 00:15:28;;;;;;;16.60;7.13;;;;;;;10.83;24.02;100552.66;5067068;28;20196;-63
2023/04/17 00:17:54;;;;;;;16.42;6.93;;;;;;;10.79;23.99;100557.94;5067281;28;20036;-65
2023/04/17 00:20:20;;;;;;;15.25;6.90;;;;;;;10.62;24.26;100532.31;5085720;28;20567;-63
2023/04/17 00:22:45;;;;;;;17.95;7.15;;;;;;;10.71;24.17;100557.25;5085062;28;20125;-64
2023/04/17 00:25:13;;;;;;;11.00;7.35;;;;;;;10.64;23.78;100546.13;5085434;28;20177;-62
2023/04/17 00:27:42;;;;;;;12.90;7.00;;;;;;;10.56;24.22;100554.09;5098179;28;20138;-61
2023/04/17 00:30:08;;;;;;;11.60;7.18;;;;;;;10.32;24.66;100514.72;5069072;28;20046;-63
2023/04/17 00:32:34;;;;;;;12.45;7.43;;;;;;;10.50;24.42;100556.81;5086383;28;20074;-62
2023/04/17 00:35:00;;;;;;;13.82;7.15;;;;;;;10.50;24.47;100558.56;5068779;28;20454;-61
2023/04/17 00:37:26;;;;;;;14.20;7.25;;;;;;;10.47;24.38;100554.25;5047994;28;20044;-64
2023/04/17 00:39:52;;;;;;;11.82;7.25;;;;;;;10.26;24.04;100515.69;5086232;28;20050;-62
2023/04/17 00:42:18;;;;;;;11.35;6.97;;;;;;;10.50;24.92;100553.34;5086184;28;20039;-62
2023/04/17 00:44:44;;;;;;;15.88;7.35;;;;;;;10.46;24.58;100557.75;5101700;28;20040;-62
2023/04/17 00:47:10;;;;;;;15.50;7.70;;;;;;;10.41;24.79;100545.75;5100727;28;20055;-62
2023/04/17 00:49:36;;;;;;;13.05;7.25;;;;;;;10.44;24.66;100548.25;5068821;28;20131;-62
2023/04/17 00:52:03;;;;;;;16.63;8.15;;;;;;;10.42;24.65;100550.88;5087444;28;20043;-61
2023/04/17 00:54:30;;;;;;;14.73;7.50;;;;;;;10.40;24.48;100547.47;5063856;28;20055;-63
2023/04/17 00:56:57;;;;;;;14.85;7.25;;;;;;;10.43;25.09;100544.81;5079717;28;20048;-61
2023/04/17 00:59:25;;;;;;;18.77;7.82;;;;;;;10.46;25.11;100541.31;5069672;28;20046;-62
2023/04/17 01:01:51;;;;;;;15.60;7.65;;;;;;;10.48;24.77;100547.31;5086154;28;20036;-64
2023/04/17 01:04:17;;;;;;;14.25;7.40;;;;;;;10.53;25.09;100546.34;5102144;28;20123;-64
2023/04/17 01:06:43;;;;;;;13.93;7.88;;;;;;;10.55;25.46;100547.16;5085433;28;20508;-63
2023/04/17 01:09:10;;;;;;;17.50;8.07;;;;;;;10.40;25.25;100521.47;5057997;28;20512;-64
2023/04/17 01:11:36;;;;;;;13.85;8.25;;;;;;;10.53;25.52;100545.47;5052839;28;20036;-62
2023/04/17 01:14:02;;;;;;;13.85;8.07;;;;;;;10.43;25.34;100530.94;5072052;28;20392;-64
2023/04/17 01:16:29;;;;;;;12.40;7.75;;;;;;;10.48;24.97;100552.50;5106537;28;20047;-63
2023/04/17 01:18:56;;;;;;;15.18;8.13;;;;;;;10.48;24.80;100545.56;5105757;28;20040;-62
2023/04/17 01:21:24;;;;;;;17.10;8.38;;;;;;;10.34;25.05;100538.94;5090783;28;20035;-64
2023/04/17 01:23:51;;;;;;;19.17;8.45;;;;;;;10.43;25.32;100551.75;5093185;27;20492;-63
2023/04/17 01:26:22;;;;;;;15.65;8.38;;;;;;;10.42;25.36;100552.63;5072408;28;20039;-64
2023/04/17 01:28:53;;;;;;;15.40;8.48;;;;;;;10.42;24.88;100542.22;5072389;28;20048;-65
2023/04/17 01:31:19;;;;;;;14.95;8.00;;;;;;;10.46;25.34;100554.31;5090394;28;20036;-63
2023/04/17 01:33:46;;;;;;;22.85;8.30;;;;;;;10.51;25.30;100557.66;5072395;28;20126;-64
2023/04/17 01:36:12;;;;;;;15.82;8.30;;;;;;;10.56;25.60;100555.81;5052091;28;20040;-65
2023/04/17 01:38:39;;;;;;;16.80;8.05;;;;;;;10.59;25.96;100559.22;5072289;28;20040;-63
2023/04/17 01:41:08;;;;;;;17.38;8.68;;;;;;;10.31;25.79;100516.44;5106028;28;20404;-63
2023/04/17 01:43:39;;;;;;;13.90;8.75;;;;;;;10.57;25.51;100553.19;5055032;28;20070;-64
2023/04/17 01:46:05;;;;;;;17.38;8.55;;;;;;;10.58;25.85;100554.03;5072219;28;20322;-63
2023/04/17 01:48:32;;;;;;;14.02;7.97;;;;;;;10.63;26.05;100558.25;5086397;28;20036;-63
2023/04/17 01:50:59;;;;;;;15.48;8.35;;;;;;;10.62;26.12;100556.53;5070929;28;20139;-64
2023/04/17 01:53:25;;;;;;;19.45;9.48;;;;;;;10.65;26.38;100555.63;5055363;28;20568;-63
2023/04/17 01:55:51;;;;;;;13.60;8.38;;;;;;;10.66;26.44;100552.16;5071725;28;20054;-64
2023/04/17 01:58:17;;;;;;;15.35;8.93;;;;;;;10.66;26.51;100556.50;5090018;28;20044;-64
2023/04/17 02:00:45;;;;;;;15.43;8.35;;;;;;;10.66;26.44;100549.56;5088817;28;20039;-64
2023/04/17 02:03:11;;;;;;;15.83;8.57;;;;;;;10.64;26.13;100551.31;5102471;28;20093;-64
2023/04/17 02:05:37;;;;;;;15.95;8.85;;;;;;;10.63;25.77;100554.78;5089842;28;20040;-66
2023/04/17 02:08:04;;;;;;;18.02;9.45;;;;;;;10.61;25.65;100557.44;5087439;28;20048;-63
2023/04/17 02:10:30;;;;;;;19.35;9.07;;;;;;;10.56;25.34;100553.22;5038153;28;20048;-63
2023/04/17 02:12:56;;;;;;;14.32;8.40;;;;;;;10.58;25.47;100556.63;5089656;28;20074;-63
2023/04/17 02:15:22;;;;;;;16.52;8.73;;;;;;;10.55;25.32;100557.56;5089151;28;20135;-64
2023/04/17 02:17:48;;;;;;;15.27;8.48;;;;;;;10.58;26.48;100554.03;5069071;28;20134;-63
2023/04/17 02:20:14;;;;;;;17.45;9.13;;;;;;;10.51;26.52;100542.94;5088771;28;20040;-63
2023/04/17 02:22:40;;;;;;;16.35;8.50;;;;;;;10.68;26.80;100559.94;5105094;28;20503;-64
2023/04/17 02:25:06;;;;;;;14.60;8.90;;;;;;;10.69;26.32;100565.06;5105276;28;20034;-63
2023/04/17 02:27:32;;;;;;;16.75;9.18;;;;;;;10.69;26.45;100562.47;5066139;28;20425;-64
2023/04/17 02:29:58;;;;;;;18.30;8.50;;;;;;;10.71;26.94;100557.25;5067928;28;20044;-64
2023/04/17 02:32:25;;;;;;;18.08;8.82;;;;;;;10.74;26.50;100559.78;5067481;28;20052;-64
2023/04/17 02:34:53;;;;;;;17.48;8.70;;;;;;;10.75;26.40;100570.16;5103802;28;20071;-63
2023/04/17 02:37:20;;;;;;;18.48;9.65;;;;;;;10.60;26.71;100540.13;5053383;28;20054;-64
2023/04/17 02:39:46;;;;;;;18.42;8.82;;;;;;;10.50;26.38;100530.81;5105098;28;20036;-64
2023/04/17 02:42:12;;;;;;;15.20;9.20;;;;;;;10.68;25.83;100565.13;5100933;28;20135;-63
2023/04/17 02:44:41;;;;;;;17.73;9.00;;;;;;;10.59;26.15;100572.22;5087248;28;20097;-65
2023/04/17 02:47:07;;;;;;;18.25;8.88;;;;;;;10.64;25.69;100569.53;5104256;28;20047;-63
2023/04/17 02:49:33;;;;;;;15.85;8.85;;;;;;;10.63;25.60;100566.06;5050732;28;20094;-64
2023/04/17 02:51:59;;;;;;;14.90;8.63;;;;;;;10.40;26.33;100541.44;5067347;28;20049;-63
2023/04/17 02:54:25;;;;;;;14.68;8.70;;;;;;;10.54;26.13;100568.00;5050395;28;20051;-61
2023/04/17 02:56:52;;;;;;;16.88;8.35;;;;;;;10.56;25.80;100555.81;5097892;28;20077;-63
2023/04/17 02:59:18;;;;;;;14.02;9.35;;;;;;;10.52;25.69;100552.41;5053560;28;20582;-63
2023/04/17 03:01:44;;;;;;;19.33;9.50;;;;;;;10.55;25.91;100554.97;5068827;28;20142;-64
2023/04/17 03:04:12;;;;;;;15.60;9.18;;;;;;;10.53;25.59;100551.53;5101944;28;20536;-65
2023/04/17 03:06:38;;;;;;;20.00;9.00;;;;;;;10.61;25.79;100554.00;5086666;28;20155;-64
2023/04/17 03:09:04;;;;;;;14.18;9.15;;;;;;;10.59;25.80;100561.81;5070145;28;20044;-63
2023/04/17 03:11:30;;;;;;;15.40;9.23;;;;;;;10.54;25.79;100557.59;5070124;28;20520;-63
2023/04/17 03:13:56;;;;;;;16.23;9.18;;;;;;;10.51;25.94;100557.66;5070483;28;20032;-62
2023/04/17 03:16:22;;;;;;;18.42;9.98;;;;;;;10.44;25.49;100543.06;5088537;28;20055;-62
2023/04/17 03:18:48;;;;;;;20.17;9.95;;;;;;;10.51;26.10;100555.94;5097462;28;20032;-64
2023/04/17 03:21:14;;;;;;;23.70;10.15;;;;;;;10.49;26.29;100562.03;5098108;28;20514;-66
2023/04/17 03:23:40;;;;;;;19.25;9.23;;;;;;;10.57;26.58;100562.75;5087745;28;20100;-63
2023/04/17 03:26:07;;;;;;;17.95;9.27;;;;;;;10.56;25.98;100572.28;5104162;28;20043;-64
2023/04/17 03:28:33;;;;;;;17.80;9.35;;;;;;;10.45;26.73;100574.25;5070169;28;20625;-65
2023/04/17 03:31:00;;;;;;;18.48;9.27;;;;;;;10.42;26.44;100583.81;5085628;28;20036;-64
2023/04/17 03:33:26;;;;;;;21.23;9.45;;;;;;;10.22;26.44;100550.41;5052785;28;20039;-64
2023/04/17 03:35:55;;;;;;;16.50;9.00;;;;;;;10.43;26.77;100588.16;5070299;28;20036;-64
2023/04/17 03:38:21;;;;;;;19.90;9.63;;;;;;;10.35;26.26;100590.03;5098343;28;20031;-63
2023/04/17 03:40:47;;;;;;;15.77;8.88;;;;;;;10.29;26.47;100597.94;5070100;28;20448;-63
2023/04/17 03:43:13;;;;;;;15.73;9.30;;;;;;;10.22;26.22;100589.41;5069733;28;20133;-64
2023/04/17 03:45:39;;;;;;;28.20;10.18;;;;;;;10.25;26.25;100585.91;5053308;28;20055;-64
2023/04/17 03:48:06;;;;;;;15.10;10.02;;;;;;;10.26;26.61;100585.03;5053502;28;20036;-64
2023/04/17 03:50:33;;;;;;;16.48;9.60;;;;;;;10.30;26.81;100584.09;5083535;28;20051;-64
2023/04/17 03:52:59;;;;;;;17.98;9.93;;;;;;;10.19;26.53;100563.50;5095071;28;20032;-63
2023/04/17 03:55:27;;;;;;;19.48;9.82;;;;;;;10.32;26.68;100590.09;5068729;28;20043;-62
2023/04/17 03:57:53;;;;;;;16.60;9.48;;;;;;;10.30;26.67;100594.47;5099647;28;20611;-63
2023/04/17 04:00:23;;;;;;;17.30;9.70;;;;;;;10.38;26.38;100598.63;5100256;28;20048;-64
2023/04/17 04:02:54;;;;;;;16.10;9.57;;;;;;;10.45;26.87;100597.66;5119701;28;20044;-64
2023/04/17 04:05:26;;;;;;;16.63;9.85;;;;;;;10.50;26.53;100582.81;5103572;28;20503;-66
2023/04/17 04:07:53;;;;;;;18.48;9.63;;;;;;;10.63;26.42;100597.25;5077268;28;21075;-65
2023/04/17 04:10:25;;;;;;;16.23;9.90;;;;;;;10.59;26.47;100568.75;5038554;28;20051;-64
2023/04/17 04:12:54;;;;;;;16.93;9.57;;;;;;;10.93;26.25;100600.16;5084974;28;20508;-64
2023/04/17 04:15:20;;;;;;;18.08;9.23;;;;;;;11.00;26.06;100599.97;5069857;28;20307;-65
2023/04/17 04:17:49;;;;;;;;;;;;;;;11.05;26.06;100586.84;5070157;28;20050;-64
2023/04/17 04:20:15;;;;;;;19.52;9.10;;;;;;;10.84;26.10;100598.56;5050472;28;19920;-62
2023/04/17 04:22:43;;;;;;;19.08;9.48;;;;;;;10.68;26.26;100591.13;5052524;28;20043;-63
2023/04/17 04:25:11;;;;;;;15.82;9.13;;;;;;;10.51;26.18;100574.13;5103702;28;20131;-63
2023/04/17 04:27:50;;;;;;;21.75;11.18;;;;;;;10.73;25.87;100595.31;5099894;28;20048;-65
2023/04/17 04:30:25;;;;;;;16.30;9.77;;;;;;;10.93;26.26;100597.53;5037132;28;20411;-64
2023/04/17 04:32:55;;;;;;;17.95;9.57;;;;;;;11.14;26.02;100598.81;5053339;28;20039;-65
2023/04/17 04:35:29;;;;;;;16.70;9.75;;;;;;;11.31;25.98;100594.06;5102780;28;20043;-65
2023/04/17 04:38:00;;;;;;;18.45;9.35;;;;;;;11.43;25.79;100592.06;5087454;28;20462;-64
2023/04/17 04:40:34;;;;;;;22.00;10.18;;;;;;;11.33;25.98;100574.06;5079852;28;20048;-64
2023/04/17 04:43:01;;;;;;;15.02;9.20;;;;;;;11.25;25.58;100569.03;5066574;28;20056;-65
2023/04/17 04:45:34;;;;;;;17.00;9.10;;;;;;;11.64;25.62;100598.50;5040396;28;20064;-65
2023/04/17 04:48:02;;;;;;;22.05;9.52;;;;;;;11.75;25.53;100600.88;5100365;28;20455;-64
2023/04/17 04:50:28;;;;;;;14.75;9.07;;;;;;;11.83;25.87;100597.19;5055513;28;20125;-66
2023/04/17 04:52:54;;;;;;;20.85;9.88;;;;;;;11.93;25.24;100599.59;5073558;28;20036;-65
2023/04/17 04:55:43;;;;;;;22.02;10.18;;;;;;;11.83;25.36;100576.34;5090991;28;20048;-63
2023/04/17 04:58:10;;;;;;;16.83;9.02;;;;;;;12.03;25.02;100601.06;5067517;28;20431;-64
2023/04/17 05:00:37;;;;;;;20.15;10.27;;;;;;;12.13;25.37;100611.22;5063452;28;20060;-63
2023/04/17 05:03:03;;;;;;;19.98;10.30;;;;;;;12.11;25.56;100581.72;5081126;28;20039;-67
2023/04/17 05:05:29;;;;;;;21.20;9.68;;;;;;;12.29;25.33;100602.09;5080728;28;20040;-67
2023/04/17 05:07:56;;;;;;;16.58;9.68;;;;;;;12.05;25.26;100579.25;5053651;28;20040;-66
2023/04/17 05:10:26;;;;;;;19.40;10.00;;;;;;;12.13;25.14;100599.94;5083102;28;20047;-64
2023/04/17 05:12:57;;;;;;;22.27;9.85;;;;;;;12.17;25.07;100596.34;5050899;28;20477;-66
2023/04/17 05:15:23;;;;;;;21.35;9.40;;;;;;;12.24;25.09;100597.91;5064431;28;20032;-64
2023/04/17 05:17:49;;;;;;;19.35;9.13;;;;;;;12.17;25.16;100578.09;5094236;28;20048;-64
2023/04/17 05:20:15;;;;;;;15.50;9.52;;;;;;;12.37;25.21;100586.22;5058838;28;20097;-64
2023/04/17 05:22:54;;;;;;;19.50;10.15;;;;;;;12.61;24.97;100589.94;5093695;28;20032;-55
2023/04/17 05:25:21;;;;;;;20.70;10.20;;;;;;;12.87;25.00;100590.03;5065797;28;20444;-70
2023/04/17 05:27:47;;;;;;;18.05;8.82;;;;;;;12.94;25.05;100557.59;5091871;28;20083;-70
2023/04/17 05:30:14;;;;;;;20.13;9.90;;;;;;;13.41;24.48;100591.88;5092167;28;20059;-67
2023/04/17 05:32:42;;;;;;;16.17;10.02;;;;;;;13.74;24.41;100590.81;5074834;28;20036;-66
2023/04/17 05:35:21;;;;;;;24.23;10.20;;;;;;;14.13;24.15;100598.25;5091496;28;20059;-65
2023/04/17 05:37:49;;;;;;;19.75;9.45;;;;;;;14.38;23.94;100597.38;5075968;28;20067;-65
2023/04/17 05:40:16;;;;;;;18.45;9.55;;;;;;;14.43;23.75;100584.13;5040253;28;20048;-57
2023/04/17 05:42:42;;;;;;;19.48;9.82;;;;;;;14.39;23.82;100564.22;5085719;28;20100;-62
2023/04/17 05:45:12;;;;;;;16.83;9.38;;;;;;;14.60;23.27;100584.34;5086629;28;20071;-65
2023/04/17 05:47:38;;;;;;;22.35;9.82;;;;;;;14.71;23.69;100590.03;5074018;28;20100;-61
2023/04/17 05:50:04;;;;;;;24.58;10.77;;;;;;;14.73;23.87;100588.22;5078633;28;20139;-66
2023/04/17 05:52:30;;;;;;;22.50;10.18;;;;;;;14.77;23.70;100584.59;5046285;28;20124;-66
2023/04/17 05:54:56;;;;;;;25.80;10.43;;;;;;;14.85;23.63;100592.16;5039605;28;20119;-64
2023/04/17 05:57:23;;;;;;;16.35;8.98;;;;;;;14.90;23.76;100597.22;5069375;28;20422;-64
2023/04/17 05:59:49;;;;;;;26.23;10.13;;;;;;;14.89;23.66;100596.38;5087575;28;20078;-66
2023/04/17 06:02:15;;;;;;;17.65;9.55;;;;;;;14.97;23.63;100589.06;5071005;28;20046;-62
2023/04/17 06:04:42;;;;;;;16.13;9.05;;;;;;;15.09;23.52;100585.13;5056557;28;20040;-65
2023/04/17 06:07:09;;;;;;;21.23;9.73;;;;;;;14.92;23.66;100549.09;5082300;28;20473;-65
2023/04/17 06:09:36;;;;;;;20.50;9.48;;;;;;;15.22;23.60;100589.00;5069462;28;20043;-67
2023/04/17 06:12:03;;;;;;;15.50;9.45;;;;;;;15.24;23.68;100588.00;5060160;28;20131;-64
2023/04/17 06:14:30;;;;;;;17.55;9.27;;;;;;;15.25;23.37;100589.72;5103478;28;20115;-65
2023/04/17 06:16:57;;;;;;;22.25;10.73;;;;;;;15.31;23.56;100586.00;5055073;28;20082;-65
2023/04/17 06:19:23;;;;;;;15.23;9.30;;;;;;;15.22;23.53;100576.75;5105311;28;20044;-63
2023/04/17 06:21:49;;;;;;;18.25;9.73;;;;;;;15.43;23.49;100603.03;5070494;28;20040;-66
2023/04/17 06:24:18;;;;;;;20.20;9.65;;;;;;;15.47;23.48;100601.97;5088705;28;20135;-64
2023/04/17 06:26:46;;;;;;;23.02;10.07;;;;;;;15.32;23.12;100577.25;5071359;28;20055;-66
2023/04/17 06:29:14;;;;;;;19.00;9.43;;;;;;;15.45;23.35;100603.81;5054075;28;20059;-67
2023/04/17 06:31:40;;;;;;;20.65;10.18;;;;;;;15.51;23.20;100600.94;5054215;28;20073;-66
2023/04/17 06:34:07;;;;;;;20.92;10.20;;;;;;;15.52;23.13;100606.16;5054449;28;20032;-64
2023/04/17 06:36:38;;;;;;;17.60;9.85;;;;;;;15.64;23.00;100610.06;5057611;28;20104;-64
2023/04/17 06:39:04;;;;;;;18.27;9.80;;;;;;;15.77;22.86;100610.41;5061017;28;20095;-63
2023/04/17 06:41:31;;;;;;;16.02;9.15;;;;;;;16.04;22.78;100612.75;5070447;28;20530;-64
2023/04/17 06:43:57;;;;;;;22.63;9.60;;;;;;;16.26;22.44;100612.69;5052557;28;20417;-65
2023/04/17 06:46:26;;;;;;;16.80;9.57;;;;;;;16.54;22.25;100615.81;5086881;28;20047;-65
2023/04/17 06:48:56;;;;;;;18.38;9.55;;;;;;;16.76;21.92;100614.91;5055971;28;20036;-65
2023/04/17 06:51:24;;;;;;;16.88;9.27;;;;;;;17.06;21.44;100608.25;5038193;28;20228;-65
2023/04/17 06:53:50;;;;;;;16.73;9.20;;;;;;;17.18;21.41;100586.66;5071257;28;20134;-67
2023/04/17 06:56:17;;;;;;;16.35;8.75;;;;;;;17.58;21.09;100593.50;5065676;28;20573;-64
2023/04/17 06:58:43;;;;;;;22.67;9.50;;;;;;;18.27;20.88;100611.13;5050496;28;20127;-67
2023/04/17 07:01:10;;;;;;;25.98;10.55;;;;;;;19.19;20.25;100619.38;5050725;28;20055;-67
2023/04/17 07:03:37;;;;;;;24.25;11.30;;;;;;;19.89;19.80;100610.16;5050229;28;20083;-64
2023/04/17 07:06:03;;;;;;;16.02;9.93;;;;;;;20.89;19.12;100588.25;5066398;28;20595;-65
2023/04/17 07:08:29;;;;;;;17.35;9.98;;;;;;;22.20;18.10;100604.38;5061006;28;20051;-65
2023/04/17 07:10:55;;;;;;;23.00;9.95;;;;;;;22.51;17.72;100599.63;5068683;28;20538;-65
2023/04/17 07:13:21;;;;;;;19.83;10.57;;;;;;;22.53;17.62;100605.69;5103376;28;20051;-66
2023/04/17 07:15:53;;;;;;;20.05;10.15;;;;;;;22.50;17.28;100605.91;5088644;28;20131;-68
2023/04/17 07:18:24;;;;;;;25.75;10.63;;;;;;;22.41;17.27;100607.38;5088618;28;20043;-66
2023/04/17 07:20:50;;;;;;;17.63;10.00;;;;;;;22.35;17.04;100607.78;5069326;28;20506;-66
2023/04/17 07:23:16;;;;;;;19.20;9.88;;;;;;;22.31;17.06;100603.66;5081715;28;20484;-68
2023/04/17 07:25:42;;;;;;;17.75;8.85;;;;;;;21.09;17.22;100585.19;5083748;28;20051;-67
2023/04/17 07:28:08;;;;;;;19.27;8.05;;;;;;;20.82;17.38;100600.16;5053581;28;20047;-66
2023/04/17 07:30:34;;;;;;;14.27;9.35;;;;;;;20.60;17.52;100578.63;5083575;28;20039;-64
2023/04/17 07:33:00;;;;;;;20.52;8.55;;;;;;;19.99;17.54;100599.94;5075079;28;20036;-67
2023/04/17 07:35:27;;;;;;;12.57;7.75;;;;;;;19.58;17.80;100608.41;5084224;28;20063;-67
2023/04/17 07:37:56;;;;;;;14.30;7.03;;;;;;;19.53;17.78;100605.19;5090630;28;20131;-66
2023/04/17 07:40:22;;;;;;;11.30;7.25;;;;;;;19.75;17.90;100612.75;5089027;28;20039;-66
2023/04/17 07:42:49;;;;;;;15.43;7.40;;;;;;;19.40;17.92;100562.81;5089840;28;20273;-68
2023/04/17 07:45:15;;;;;;;10.68;7.70;;;;;;;19.27;17.93;100606.63;5086831;28;20505;-66
2023/04/17 07:47:41;;;;;;;15.23;8.10;;;;;;;19.35;17.99;100614.13;5105109;27;20063;-67
2023/04/17 07:50:07;;;;;;;13.95;8.15;;;;;;;20.09;17.80;100601.94;5068557;28;20044;-67
2023/04/17 07:52:33;;;;;;;18.75;9.38;;;;;;;20.63;17.22;100602.22;5071302;28;20044;-66
2023/04/17 07:54:58;;;;;;;23.33;9.40;;;;;;;21.02;17.10;100607.69;5085524;28;20047;-65
2023/04/17 07:57:27;;;;;;;16.90;9.52;;;;;;;21.74;16.69;100606.56;5094693;28;20043;-65
2023/04/17 07:59:53;;;;;;;;;;;;;;;23.44;15.77;100605.34;5103704;28;20039;-66
2023/04/17 08:02:19;;;;;;;15.57;8.63;;;;;;;24.40;15.16;100604.28;5068095;28;19923;-67
2023/04/17 08:04:45;;;;;;;17.70;6.55;;;;;;;23.94;15.01;100614.03;5072425;28;20531;-68
2023/04/17 08:07:11;;;;;;;12.02;5.47;;;;;;;22.27;15.88;100616.28;5084050;28;20039;-66
2023/04/17 08:09:38;;;;;;;11.40;6.53;;;;;;;21.09;16.91;100600.22;5102596;28;20500;-66
2023/04/17 08:12:04;;;;;;;12.90;6.63;;;;;;;21.08;17.04;100611.75;5106877;28;20043;-67
2023/04/17 08:14:30;;;;;;;12.18;7.40;;;;;;;22.28;16.45;100611.81;5083698;28;20031;-67
2023/04/17 08:16:56;;;;;;;12.48;5.45;;;;;;;23.88;15.09;100577.31;5086250;28;20047;-61
2023/04/17 08:19:22;;;;;;;11.60;5.07;;;;;;;24.98;14.55;100585.63;5090183;28;20079;-62
2023/04/17 08:21:49;;;;;;;8.57;5.38;;;;;;;26.85;13.50;100600.06;5107294;27;20123;-63
2023/04/17 08:24:16;;;;;;;13.50;5.68;;;;;;;27.23;13.08;100592.19;5080828;28;20511;-64
2023/04/17 08:26:42;;;;;;;7.97;5.38;;;;;;;27.73;12.49;100582.31;5089776;28;20122;-64
2023/04/17 08:29:08;;;;;;;10.77;6.13;;;;;;;26.37;12.88;100598.00;5071382;28;20055;-62
2023/04/17 08:31:38;;;;;;;10.60;5.25;;;;;;;24.41;13.98;100584.72;5092086;28;20036;-64
2023/04/17 08:34:04;;;;;;;9.73;5.40;;;;;;;24.00;14.10;100592.34;5097497;28;20048;-64
2023/04/17 08:36:30;;;;;;;12.55;5.93;;;;;;;23.83;13.78;100572.34;5082709;28;20037;-63
2023/04/17 08:38:56;;;;;;;7.32;4.30;;;;;;;23.34;14.01;100576.94;5085984;28;20512;-64
2023/04/17 08:41:25;;;;;;;8.52;4.80;;;;;;;22.04;14.89;100592.28;5053579;28;20431;-63
2023/04/17 08:43:52;;;;;;;10.30;5.35;;;;;;;21.29;15.72;100586.63;5065061;28;20666;-65
2023/04/17 08:46:22;;;;;;;11.15;5.05;;;;;;;20.61;16.11;100573.25;5067030;28;20048;-64
2023/04/17 08:48:48;;;;;;;10.95;5.32;;;;;;;20.75;16.17;100577.69;5088863;28;20048;-63
2023/04/17 08:51:14;;;;;;;11.18;5.60;;;;;;;20.62;16.31;100577.56;5091999;28;20468;-64
2023/04/17 08:53:40;;;;;;;14.10;5.22;;;;;;;20.63;16.48;100571.34;5087303;28;20046;-61
2023/04/17 08:56:06;;;;;;;9.02;5.20;;;;;;;21.31;16.25;100575.91;5066256;28;20127;-64
2023/04/17 08:58:33;;;;;;;9.50;4.70;;;;;;;21.73;15.53;100585.50;5086732;28;20047;-63
2023/04/17 09:01:10;;;;;;;9.68;4.72;;;;;;;21.09;16.04;100597.59;5062488;28;20074;-62
2023/04/17 09:03:55;;;;;;;10.48;5.20;;;;;;;22.10;15.36;100579.47;5076873;28;20069;-65
2023/04/17 09:06:21;;;;;;;9.50;4.82;;;;;;;23.07;14.72;100582.44;5093666;28;20404;-65
2023/04/17 09:08:58;;;;;;;10.30;5.45;;;;;;;22.91;14.77;100582.69;5070624;28;20043;-65
2023/04/17 09:11:25;;;;;;;13.50;5.45;;;;;;;21.83;15.70;100590.06;5090832;28;20036;-64
2023/04/17 09:13:51;;;;;;;11.05;5.53;;;;;;;20.63;16.40;100584.56;5081034;28;20039;-63
2023/04/17 09:16:18;;;;;;;9.88;5.72;;;;;;;19.96;17.05;100550.78;5056211;28;20146;-63
2023/04/17 09:18:45;;;;;;;11.63;5.95;;;;;;;20.27;17.26;100576.22;5090995;28;20044;-63
2023/04/17 09:21:12;;;;;;;12.55;5.88;;;;;;;20.01;17.28;100561.91;5094157;28;22124;-63
2023/04/17 09:24:06;;;;;;;10.20;4.57;;;;;;;19.86;17.14;100574.25;5072319;28;20127;-63
2023/04/17 09:26:32;;;;;;;9.88;5.15;;;;;;;19.44;17.46;100579.31;5087119;28;20103;-64
2023/04/17 09:29:10;;;;;;;9.65;4.35;;;;;;;19.33;17.36;100556.19;5080899;28;20052;-67
2023/04/17 09:31:37;;;;;;;8.20;4.60;;;;;;;19.74;17.26;100582.84;5086392;28;20515;-65
2023/04/17 09:34:07;;;;;;;11.10;4.70;;;;;;;19.62;17.27;100574.81;5090731;28;20787;-67
2023/04/17 09:36:36;;;;;;;6.57;4.47;;;;;;;19.23;17.70;100584.00;5071240;28;20043;-68
2023/04/17 09:39:04;;;;;;;8.33;4.47;;;;;;;18.52;17.93;100580.84;5096106;28;20039;-64
2023/04/17 09:41:38;;;;;;;12.00;5.13;;;;;;;18.13;18.28;100573.22;5093242;28;20290;-67
2023/04/17 09:44:05;;;;;;;6.88;4.03;;;;;;;17.94;18.29;100547.91;5089593;28;20063;-64
2023/04/17 09:46:40;;;;;;;8.10;4.63;;;;;;;18.18;18.29;100576.44;5098358;28;20074;-63
2023/04/17 09:49:33;;;;;;;8.05;4.40;;;;;;;18.47;18.21;100574.97;5095938;28;20039;-64
2023/04/17 09:51:59;;;;;;;7.35;4.47;;;;;;;18.17;18.47;100574.75;5094049;28;20066;-63
2023/04/17 09:54:25;;;;;;;8.65;4.50;;;;;;;17.95;18.77;100570.69;5060393;28;20116;-65
2023/04/17 09:56:54;;;;;;;7.40;4.20;;;;;;;17.89;18.98;100560.44;5079594;28;20040;-63
2023/04/17 09:59:22;;;;;;;5.20;3.92;;;;;;;17.77;18.84;100562.75;5048764;28;20044;-65
2023/04/17 10:01:49;;;;;;;6.90;4.90;;;;;;;17.50;19.52;100564.09;5035193;28;20814;-62
2023/04/17 10:04:15;;;;;;;8.40;4.80;;;;;;;17.44;19.69;100559.13;5082888;28;20040;-64
2023/04/17 10:06:41;;;;;;;8.15;4.57;;;;;;;17.82;19.63;100565.16;5069332;28;20036;-63
2023/04/17 10:09:07;;;;;;;9.88;4.95;;;;;;;18.18;19.20;100559.81;5103328;28;20043;-64
2023/04/17 10:11:36;;;;;;;9.90;4.68;;;;;;;18.15;19.50;100537.16;5085686;28;20448;-63
2023/04/17 10:14:16;;;;;;;8.55;4.35;;;;;;;18.46;19.47;100559.22;5070172;28;20512;-63
2023/04/17 10:16:42;;;;;;;7.50;4.50;;;;;;;18.60;19.21;100562.84;5069802;28;20058;-61
2023/04/17 10:19:35;;;;;;;9.98;4.30;;;;;;;18.33;19.25;100553.75;5087538;28;20032;-63
2023/04/17 10:22:13;;;;;;;7.45;4.25;;;;;;;18.23;19.41;100555.16;5048547;28;20083;-62
2023/04/17 10:24:39;;;;;;;5.75;4.25;;;;;;;18.14;19.49;100559.13;5089428;28;20051;-64
2023/04/17 10:27:24;;;;;;;8.95;4.53;;;;;;;18.00;19.64;100560.75;5088890;28;20501;-64
2023/04/17 10:29:53;;;;;;;7.13;4.93;;;;;;;18.15;19.74;100562.59;5089175;28;20036;-63
2023/04/17 10:32:20;;;;;;;11.70;4.65;;;;;;;18.09;19.79;100531.34;5089101;28;20468;-65
2023/04/17 10:34:46;;;;;;;8.20;4.47;;;;;;;18.16;19.81;100556.44;5066174;28;20101;-63
2023/04/17 10:37:14;;;;;;;14.13;5.00;;;;;;;18.13;19.85;100560.06;5084873;28;20036;-61
2023/04/17 10:40:00;;;;;;;7.78;4.40;;;;;;;18.26;20.11;100557.66;5085644;28;20048;-62
2023/04/17 10:42:28;;;;;;;8.13;4.75;;;;;;;18.18;20.10;100559.81;5072583;28;20274;-61
2023/04/17 10:45:00;;;;;;;8.05;4.60;;;;;;;17.67;20.34;100545.75;5098669;27;20621;-64
2023/04/17 10:47:33;;;;;;;9.60;4.47;;;;;;;17.52;20.92;100559.63;5086201;28;20052;-63
2023/04/17 10:50:02;;;;;;;8.65;4.45;;;;;;;17.47;21.11;100558.13;5050031;28;20068;-64
2023/04/17 10:52:43;;;;;;;10.43;4.93;;;;;;;17.75;21.08;100553.22;5070536;28;20615;-65
2023/04/17 10:55:16;;;;;;;7.15;4.22;;;;;;;17.93;20.82;100560.22;5089934;28;20058;-62
2023/04/17 10:58:02;;;;;;;11.05;5.15;;;;;;;17.92;20.89;100557.66;5074585;28;20419;-67
2023/04/17 11:00:48;;;;;;;9.65;5.07;;;;;;;17.99;21.21;100559.06;5060924;28;20055;-64
2023/04/17 11:03:14;;;;;;;6.63;4.60;;;;;;;18.03;21.32;100566.72;5076819;28;20061;-66
2023/04/17 11:05:45;;;;;;;7.60;4.88;;;;;;;17.95;21.30;100539.09;5073358;28;20130;-66
2023/04/17 11:08:10;;;;;;;14.50;4.97;;;;;;;18.15;21.08;100559.97;5074144;28;20660;-62
2023/04/17 11:10:37;;;;;;;8.30;5.43;;;;;;;18.19;20.90;100549.22;5088362;28;20088;-65
2023/04/17 11:13:02;;;;;;;11.43;4.80;;;;;;;18.30;20.79;100559.19;5064716;28;20039;-64
2023/04/17 11:15:30;;;;;;;8.88;4.60;;;;;;;18.52;20.77;100551.88;5076080;28;20510;-62
2023/04/17 11:17:56;;;;;;;8.52;4.53;;;;;;;18.47;20.85;100518.81;5086996;28;20153;-64
2023/04/17 11:20:24;;;;;;;7.75;4.30;;;;;;;18.96;20.77;100554.75;5090898;28;20058;-64
2023/04/17 11:22:50;;;;;;;6.38;3.85;;;;;;;18.83;20.59;100542.34;5081350;28;20040;-64